Time;durP1;ratioP1;P1;durP2;ratioP2;P2;SDS_P1;SDS_P2;PMS_P1;PMS_P2;Temp;Humidity;BMP_temperature;BMP_pressure;BME280_temperature;BME280_humidity;BME280_pressure;Samples;Min_cycle;Max_cycle;Signal;HPM_P1;HPM_P2
2022/07/22 00:01:01;;;;;;;1999.90;999.90;;;;;;;19.09;100.00;94763.72;5017497;28;20174;-64
2022/07/22 00:03:26;;;;;;;1999.90;999.90;;;;;;;19.07;100.00;94755.88;5017875;28;20184;-63
2022/07/22 00:05:52;;;;;;;1999.90;999.90;;;;;;;19.06;100.00;94759.13;5017469;28;20185;-63
2022/07/22 00:08:17;;;;;;;1999.90;999.90;;;;;;;19.05;100.00;94754.84;5017283;28;20277;-65
2022/07/22 00:10:43;;;;;;;1999.90;999.90;;;;;;;19.05;100.00;94752.06;5017124;28;20183;-63
2022/07/22 00:13:08;;;;;;;1999.90;999.90;;;;;;;19.03;100.00;94754.53;5033616;28;20178;-61
2022/07/22 00:15:34;;;;;;;1999.90;999.90;;;;;;;19.01;100.00;94759.75;5034373;28;20210;-60
2022/07/22 00:17:59;;;;;;;1999.90;999.90;;;;;;;19.00;100.00;94769.31;5034087;28;20218;-61
2022/07/22 00:20:24;;;;;;;1999.90;999.90;;;;;;;18.94;100.00;94754.63;5034144;28;20209;-60
2022/07/22 00:22:50;;;;;;;1999.90;999.90;;;;;;;18.90;100.00;94751.25;5017711;28;20181;-60
2022/07/22 00:25:16;;;;;;;1999.90;999.90;;;;;;;18.87;100.00;94743.91;5017070;28;20178;-61
2022/07/22 00:27:41;;;;;;;1999.90;999.90;;;;;;;18.86;100.00;94739.59;5017428;28;20186;-60
2022/07/22 00:30:07;;;;;;;1999.90;999.90;;;;;;;18.83;100.00;94735.03;5017098;28;20190;-63
2022/07/22 00:32:32;;;;;;;1999.90;999.90;;;;;;;18.80;100.00;94722.13;5016826;28;20183;-64
2022/07/22 00:34:58;;;;;;;1999.90;999.90;;;;;;;18.76;100.00;94718.78;5016873;28;20271;-64
2022/07/22 00:37:23;;;;;;;1999.90;999.90;;;;;;;18.74;100.00;94718.47;5016767;28;20182;-64
2022/07/22 00:39:49;;;;;;;1999.90;999.90;;;;;;;18.72;100.00;94707.13;5016869;28;20186;-63
2022/07/22 00:42:14;;;;;;;1999.90;999.90;;;;;;;18.66;100.00;94706.25;5017002;28;20189;-63
2022/07/22 00:44:40;;;;;;;1999.90;999.90;;;;;;;18.60;100.00;94705.34;5016703;28;20182;-64
2022/07/22 00:47:06;;;;;;;1999.90;999.90;;;;;;;18.58;100.00;94696.78;5015864;28;20205;-64
2022/07/22 00:49:31;;;;;;;1999.90;999.90;;;;;;;18.56;100.00;94693.69;5016735;28;20213;-62
2022/07/22 00:51:57;;;;;;;1999.90;999.90;;;;;;;18.53;100.00;94700.94;5016683;28;20274;-64
2022/07/22 00:54:22;;;;;;;1999.90;999.90;;;;;;;18.51;100.00;94694.34;5016478;28;20201;-61
2022/07/22 00:56:48;;;;;;;1999.90;999.90;;;;;;;18.51;100.00;94699.88;5016236;28;20272;-60
2022/07/22 00:59:14;;;;;;;1999.90;999.90;;;;;;;18.48;100.00;94698.06;5033049;28;20297;-62
2022/07/22 01:01:39;;;;;;;1999.90;999.90;;;;;;;18.45;100.00;94697.00;5032983;28;20236;-60
2022/07/22 01:04:05;;;;;;;1999.90;999.90;;;;;;;18.46;100.00;94700.53;5017165;28;20186;-59
2022/07/22 01:06:32;;;;;;;1999.90;999.90;;;;;;;18.46;100.00;94695.00;5016611;28;20217;-65
2022/07/22 01:08:58;;;;;;;1999.90;999.90;;;;;;;18.46;100.00;94695.00;5016712;28;20309;-62
2022/07/22 01:11:24;;;;;;;1999.90;999.90;;;;;;;18.42;100.00;94700.72;5016411;28;20220;-64
2022/07/22 01:13:50;;;;;;;1999.90;999.90;;;;;;;18.41;100.00;94709.47;5016453;28;20186;-63
2022/07/22 01:16:17;;;;;;;1999.90;999.90;;;;;;;18.40;100.00;94705.19;5016138;28;20183;-61
2022/07/22 01:18:43;;;;;;;1999.90;999.90;;;;;;;18.41;100.00;94703.94;5015993;28;20190;-62
2022/07/22 01:21:09;;;;;;;1999.90;999.90;;;;;;;18.41;100.00;94715.00;5016295;28;20205;-63
2022/07/22 01:23:35;;;;;;;1999.90;999.90;;;;;;;18.40;100.00;94713.47;5016865;28;20277;-61
2022/07/22 01:26:02;;;;;;;1999.90;999.90;;;;;;;18.36;100.00;94723.94;5016596;28;20194;-61
2022/07/22 01:28:27;;;;;;;1999.90;999.90;;;;;;;18.33;100.00;94719.31;5016245;28;20196;-62
2022/07/22 01:30:52;;;;;;;1999.90;999.90;;;;;;;18.30;100.00;94731.31;5016424;28;20187;-62
2022/07/22 01:33:19;;;;;;;1999.90;999.90;;;;;;;18.27;100.00;94723.97;5016021;28;20191;-60
2022/07/22 01:35:44;;;;;;;1999.90;999.90;;;;;;;18.26;100.00;94719.66;5015843;28;20237;-62
2022/07/22 01:38:11;;;;;;;1999.90;999.90;;;;;;;18.22;100.00;94714.31;5016455;28;20198;-62
2022/07/22 01:40:36;;;;;;;1999.90;999.90;;;;;;;18.22;100.00;94719.06;5016010;28;20186;-61
2022/07/22 01:43:02;;;;;;;1999.90;999.90;;;;;;;18.18;100.00;94724.00;5016134;28;20205;-60
2022/07/22 01:45:28;;;;;;;1999.90;999.90;;;;;;;18.18;100.00;94726.78;5015850;28;20183;-59
2022/07/22 01:47:53;;;;;;;1999.90;999.90;;;;;;;18.16;100.00;94729.22;5015865;28;20187;-59
2022/07/22 01:50:19;;;;;;;1999.90;999.90;;;;;;;18.10;100.00;94725.59;5015818;28;20197;-61
2022/07/22 01:52:44;;;;;;;1999.90;999.90;;;;;;;18.08;100.00;94726.06;5015989;28;20190;-58
2022/07/22 01:55:11;;;;;;;1999.90;999.90;;;;;;;18.07;100.00;94723.75;5016119;28;20216;-59
2022/07/22 01:57:36;;;;;;;1999.90;999.90;;;;;;;18.03;100.00;94734.22;5016890;28;20194;-59
2022/07/22 02:00:08;;;;;;;1999.90;999.90;;;;;;;18.03;100.00;94734.97;5019341;28;20195;-63
2022/07/22 02:02:34;;;;;;;1999.90;999.90;;;;;;;18.01;100.00;94742.19;5019670;28;20194;-59
2022/07/22 02:05:00;;;;;;;1999.90;999.90;;;;;;;17.92;100.00;94733.97;5019143;28;20269;-58
2022/07/22 02:07:25;;;;;;;1999.90;999.90;;;;;;;17.86;100.00;94731.06;5019092;28;20210;-59
2022/07/22 02:09:52;;;;;;;1999.90;999.90;;;;;;;17.83;100.00;94731.22;5018860;28;20214;-58
2022/07/22 02:12:17;;;;;;;1999.90;999.90;;;;;;;17.81;100.00;94720.63;5019251;28;20198;-59
2022/07/22 02:14:43;;;;;;;1999.90;999.90;;;;;;;17.77;100.00;94722.78;5035380;28;20252;-59
2022/07/22 02:17:08;;;;;;;1999.90;999.90;;;;;;;17.75;100.00;94718.97;5019624;28;20198;-58
2022/07/22 02:19:34;;;;;;;1999.90;999.90;;;;;;;17.74;100.00;94720.97;5019486;28;20197;-60
2022/07/22 02:21:59;;;;;;;1999.90;999.90;;;;;;;17.71;100.00;94718.38;5019838;28;20265;-64
2022/07/22 02:24:25;;;;;;;1999.90;999.90;;;;;;;17.65;100.00;94725.75;5018880;28;20190;-63
2022/07/22 02:26:50;;;;;;;1999.90;999.90;;;;;;;17.60;100.00;94712.56;5019085;28;20194;-62
2022/07/22 02:29:15;;;;;;;1999.90;999.90;;;;;;;17.55;100.00;94704.94;5018806;28;20198;-61
2022/07/22 02:31:41;;;;;;;1999.90;999.90;;;;;;;17.56;100.00;94704.44;5018894;28;20187;-64
2022/07/22 02:34:06;;;;;;;1999.90;999.90;;;;;;;17.57;100.00;94696.94;5018840;28;20206;-64
2022/07/22 02:36:32;;;;;;;1999.90;999.90;;;;;;;17.59;100.00;94689.72;5018850;28;20336;-61
2022/07/22 02:38:57;;;;;;;1999.90;999.90;;;;;;;17.60;100.00;94690.47;5018623;28;20193;-64
2022/07/22 02:41:23;;;;;;;1999.90;999.90;;;;;;;17.59;100.00;94692.47;5018942;28;20277;-59
2022/07/22 02:43:48;;;;;;;1999.90;999.90;;;;;;;17.59;100.00;94700.00;5018602;28;20240;-58
2022/07/22 02:46:14;;;;;;;1999.90;999.90;;;;;;;17.55;100.00;94705.69;5035422;28;20190;-59
2022/07/22 02:48:39;;;;;;;1999.90;999.90;;;;;;;17.52;100.00;94705.84;5018214;28;20199;-59
2022/07/22 02:51:05;;;;;;;1999.90;999.90;;;;;;;17.54;100.00;94698.63;5019021;28;20201;-59
2022/07/22 02:53:30;;;;;;;1999.90;999.90;;;;;;;17.54;100.00;94695.09;5018284;28;20198;-58
2022/07/22 02:55:55;;;;;;;1999.90;999.90;;;;;;;17.55;100.00;94693.88;5034842;28;20214;-59
2022/07/22 02:58:21;;;;;;;1999.90;999.90;;;;;;;17.49;100.00;94712.31;5018524;28;20249;-60
2022/07/22 03:00:46;;;;;;;1999.90;999.90;;;;;;;17.52;100.00;94716.91;5018361;28;20262;-60
2022/07/22 03:03:12;;;;;;;1999.90;999.90;;;;;;;17.51;100.00;94709.81;5018146;28;20269;-60
2022/07/22 03:05:38;;;;;;;1999.90;999.90;;;;;;;17.50;100.00;94719.34;5018029;28;20199;-61
2022/07/22 03:08:03;;;;;;;1999.90;999.90;;;;;;;17.46;100.00;94724.25;5018867;28;20186;-60
2022/07/22 03:10:29;;;;;;;1999.90;999.90;;;;;;;17.45;100.00;94717.97;5017365;28;20206;-61
2022/07/22 03:12:54;;;;;;;1999.90;999.90;;;;;;;17.45;100.00;94698.63;5018008;28;20229;-61
2022/07/22 03:15:19;;;;;;;1999.90;999.90;;;;;;;17.42;100.00;94696.84;4974982;28;20228;-63
2022/07/22 03:17:45;;;;;;;1999.90;999.90;;;;;;;17.41;100.00;94694.50;4974895;28;20275;-58
2022/07/22 03:20:11;;;;;;;1999.90;999.90;;;;;;;17.42;100.00;94696.06;4975105;28;20200;-59
2022/07/22 03:22:37;;;;;;;1999.90;999.90;;;;;;;17.39;100.00;94691.44;4975289;28;20216;-59
2022/07/22 03:25:03;;;;;;;1999.90;999.90;;;;;;;17.40;100.00;94687.44;4975315;28;20228;-59
2022/07/22 03:27:28;;;;;;;1999.90;999.90;;;;;;;17.39;100.00;94685.91;4974716;28;20320;-60
2022/07/22 03:29:54;;;;;;;1999.90;999.90;;;;;;;17.38;100.00;94684.38;4975001;28;20208;-59
2022/07/22 03:32:19;;;;;;;1999.90;999.90;;;;;;;17.39;100.00;94670.13;4974853;28;20188;-64
2022/07/22 03:34:45;;;;;;;1999.90;999.90;;;;;;;17.39;100.00;94674.88;4974812;28;20313;-67
2022/07/22 03:37:11;;;;;;;1999.90;999.90;;;;;;;17.38;100.00;94673.34;4974557;28;20192;-60
2022/07/22 03:39:36;;;;;;;1999.90;999.90;;;;;;;17.39;100.00;94674.88;4974942;28;20246;-60
2022/07/22 03:42:02;;;;;;;1999.90;999.90;;;;;;;17.40;100.00;94665.34;4974762;28;20204;-58
2022/07/22 03:44:27;;;;;;;1999.90;999.90;;;;;;;17.38;100.00;94667.81;4974708;28;20192;-59
2022/07/22 03:46:53;;;;;;;1999.90;999.90;;;;;;;17.40;100.00;94681.91;5018485;28;20201;-61
2022/07/22 03:49:18;;;;;;;1999.90;999.90;;;;;;;17.43;100.00;94681.00;5017797;28;20187;-60
2022/07/22 03:51:43;;;;;;;1999.90;999.90;;;;;;;17.47;100.00;94673.34;5017739;28;20194;-62
2022/07/22 03:54:09;;;;;;;1999.90;999.90;;;;;;;17.51;100.00;94683.00;5017680;28;20256;-60
2022/07/22 03:56:34;;;;;;;1999.90;999.90;;;;;;;17.60;100.00;94684.97;5017433;28;20273;-61
2022/07/22 03:59:00;;;;;;;1999.90;999.90;;;;;;;17.72;100.00;94700.56;5017912;28;20186;-61
2022/07/22 04:01:26;;;;;;;1999.90;999.90;;;;;;;17.81;100.00;94714.34;5018038;28;20221;-61
2022/07/22 04:03:51;;;;;;;1999.90;999.90;;;;;;;17.97;100.00;94731.31;5017151;28;20186;-59
2022/07/22 04:06:16;;;;;;;1999.90;999.90;;;;;;;18.19;100.00;94764.25;5017424;28;20234;-58
2022/07/22 04:08:42;;;;;;;1999.90;999.90;;;;;;;18.47;100.00;94793.34;5017289;28;20206;-65
2022/07/22 04:11:07;;;;;;;1999.90;999.90;;;;;;;18.73;100.00;94835.91;5017465;28;20236;-61
2022/07/22 04:13:33;;;;;;;1999.90;999.90;;;;;;;18.96;100.00;94884.97;5017496;28;20182;-66
2022/07/22 04:15:58;;;;;;;1999.90;999.90;;;;;;;19.15;100.00;94923.16;5033414;28;20214;-64
2022/07/22 04:18:23;;;;;;;1999.90;999.90;;;;;;;19.60;100.00;94952.63;5033202;28;20226;-62
2022/07/22 04:20:49;;;;;;;1999.90;999.90;;;;;;;19.84;100.00;95022.66;5016408;28;20236;-61
2022/07/22 04:23:15;;;;;;;1999.90;999.90;;;;;;;20.05;100.00;95070.72;5033645;28;20182;-62
2022/07/22 04:25:41;;;;;;;1999.90;999.90;;;;;;;20.44;100.00;95114.72;5017294;28;20186;-62
2022/07/22 04:28:06;;;;;;;1999.90;999.90;;;;;;;20.67;100.00;95155.56;5033504;28;20182;-65
2022/07/22 04:30:32;;;;;;;1999.90;999.90;;;;;;;20.98;100.00;95196.84;5017443;28;20197;-59
2022/07/22 04:32:58;;;;;;;1999.90;999.90;;;;;;;21.29;100.00;95224.94;5016696;28;20186;-60
2022/07/22 04:35:24;;;;;;;1999.90;999.90;;;;;;;21.49;100.00;95261.97;5033344;28;20293;-59
2022/07/22 04:37:49;;;;;;;1999.90;999.90;;;;;;;21.72;100.00;95269.53;5017043;28;20217;-59
2022/07/22 04:40:15;;;;;;;1999.90;999.90;;;;;;;22.16;100.00;95309.25;5017169;28;20187;-61
2022/07/22 04:42:40;;;;;;;1999.90;999.90;;;;;;;22.44;100.00;95337.53;5016678;28;20187;-59
2022/07/22 04:45:06;;;;;;;1999.90;999.90;;;;;;;22.26;100.00;95360.00;5016703;28;20209;-61
2022/07/22 04:47:31;;;;;;;1999.90;999.90;;;;;;;22.83;100.00;95374.38;5016631;28;20182;-66
2022/07/22 04:49:57;;;;;;;1999.90;999.90;;;;;;;23.00;100.00;95383.75;5016279;28;20194;-67
2022/07/22 04:52:22;;;;;;;1999.90;999.90;;;;;;;23.38;100.00;95403.84;5017067;28;20305;-67
2022/07/22 04:54:48;;;;;;;1999.90;999.90;;;;;;;23.73;100.00;95431.69;5016632;28;20271;-70
2022/07/22 04:57:13;;;;;;;1999.90;999.90;;;;;;;23.96;100.00;95442.66;5032849;28;20194;-68
2022/07/22 04:59:38;;;;;;;1999.90;999.90;;;;;;;24.14;100.00;95459.13;5016682;28;20205;-67
2022/07/22 05:02:04;;;;;;;1999.90;999.90;;;;;;;24.28;100.00;95468.66;5032982;28;20186;-70
2022/07/22 05:04:29;;;;;;;1999.90;999.90;;;;;;;24.83;100.00;95491.63;5032957;28;20203;-65
2022/07/22 05:06:55;;;;;;;1999.90;999.90;;;;;;;24.85;100.00;95494.69;5016207;28;20194;-69
2022/07/22 05:09:20;;;;;;;1999.90;999.90;;;;;;;24.94;100.00;95502.91;5016305;28;20213;-62
2022/07/22 05:11:46;;;;;;;1999.90;999.90;;;;;;;25.06;100.00;95498.97;5016313;28;20194;-60
2022/07/22 05:14:11;;;;;;;1999.90;999.90;;;;;;;25.18;100.00;95518.16;5032765;28;20273;-61
2022/07/22 05:16:37;;;;;;;1999.90;999.90;;;;;;;25.18;100.00;95512.56;5017061;28;20198;-62
2022/07/22 05:19:04;;;;;;;1999.90;999.90;;;;;;;25.33;100.00;95518.03;5016298;28;20194;-61
2022/07/22 05:21:29;;;;;;;1999.90;999.90;;;;;;;25.63;100.00;95530.47;5015922;28;20198;-62
2022/07/22 05:23:55;;;;;;;1999.90;999.90;;;;;;;25.78;100.00;95541.50;5016010;28;20198;-65
2022/07/22 05:26:20;;;;;;;1999.90;999.90;;;;;;;25.80;100.00;95539.75;5016747;28;20197;-67
2022/07/22 05:28:46;;;;;;;1999.90;999.90;;;;;;;26.04;100.00;95548.56;5016119;28;20187;-67
2022/07/22 05:31:11;;;;;;;1999.90;999.90;;;;;;;26.33;100.00;95553.81;5015941;28;20273;-70
2022/07/22 05:33:36;;;;;;;1999.90;999.90;;;;;;;26.60;100.00;95560.84;5018602;28;20277;-67
2022/07/22 05:36:02;;;;;;;1999.90;999.90;;;;;;;26.94;100.00;95568.84;5019407;28;20220;-69
2022/07/22 05:38:28;;;;;;;1999.90;999.90;;;;;;;27.31;100.00;95580.69;5019580;28;20277;-65
2022/07/22 05:40:53;;;;;;;1999.90;999.90;;;;;;;27.72;100.00;95592.94;5019412;28;20321;-65
2022/07/22 05:43:19;;;;;;;1999.90;999.90;;;;;;;27.93;100.00;95593.47;5019376;28;20240;-65
2022/07/22 05:45:44;;;;;;;1999.90;999.90;;;;;;;28.65;100.00;95610.97;5019701;28;20186;-68
2022/07/22 05:48:09;;;;;;;1999.90;999.90;;;;;;;29.11;100.00;95607.50;5036155;28;20244;-67
2022/07/22 05:50:36;;;;;;;1999.90;999.90;;;;;;;29.55;100.00;95615.66;5019290;28;20178;-67
2022/07/22 05:53:01;;;;;;;1999.90;999.90;;;;;;;29.63;100.00;95619.47;5019835;28;20274;-67
2022/07/22 05:55:27;;;;;;;1999.90;999.90;;;;;;;29.31;100.00;95618.38;5019054;28;20297;-75
2022/07/22 05:57:52;;;;;;;1999.90;999.90;;;;;;;29.58;100.00;95618.22;5019720;28;20225;-65
2022/07/22 06:00:17;;;;;;;1999.90;999.90;;;;;;;30.31;100.00;95628.41;5019076;28;20198;-61
2022/07/22 06:02:43;;;;;;;1999.90;999.90;;;;;;;30.87;94.38;95634.22;5019650;28;20186;-65
2022/07/22 06:05:08;;;;;;;1999.90;999.90;;;;;;;31.41;87.27;95637.69;5019544;28;20193;-66
2022/07/22 06:07:33;;;;;;;1999.90;999.90;;;;;;;31.97;83.27;95632.72;5035783;28;20213;-68
2022/07/22 06:09:59;;;;;;;1999.90;999.90;;;;;;;32.52;77.03;95631.78;5018978;28;20218;-66
2022/07/22 06:12:24;;;;;;;1999.90;999.90;;;;;;;32.15;79.39;95640.41;5019149;28;20273;-65
2022/07/22 06:14:50;;;;;;;1999.90;999.90;;;;;;;32.75;75.54;95641.41;5018751;28;20202;-66
2022/07/22 06:17:15;;;;;;;1999.90;999.90;;;;;;;33.38;70.40;95637.59;5018802;28;20189;-67
2022/07/22 06:19:40;;;;;;;1999.90;999.90;;;;;;;33.80;67.04;95651.31;5019335;28;20218;-67
2022/07/22 06:22:06;;;;;;;1999.90;999.90;;;;;;;33.66;67.76;95649.84;5035629;28;20201;-60
2022/07/22 06:24:31;;;;;;;1999.90;999.90;;;;;;;33.61;68.04;95645.06;5018475;28;20206;-60
2022/07/22 06:26:57;;;;;;;1999.90;999.90;;;;;;;33.84;66.94;95651.75;5018827;28;20186;-59
2022/07/22 06:29:22;;;;;;;1999.90;999.90;;;;;;;34.49;64.28;95642.22;5019294;28;20186;-60
2022/07/22 06:31:48;;;;;;;1999.90;999.90;;;;;;;35.02;61.45;95648.25;5018622;28;20187;-61
2022/07/22 06:34:13;;;;;;;1999.90;999.90;;;;;;;34.52;62.51;95640.31;5019074;28;20236;-60
2022/07/22 06:36:38;;;;;;;1999.90;999.90;;;;;;;34.85;62.94;95645.13;5035521;28;20225;-62
2022/07/22 06:39:04;;;;;;;1999.90;999.90;;;;;;;35.21;60.52;95637.41;5018595;28;20190;-62
2022/07/22 06:41:29;;;;;;;1999.90;999.90;;;;;;;35.89;57.37;95635.63;5019155;28;20245;-62
2022/07/22 06:43:55;;;;;;;1999.90;999.90;;;;;;;35.60;58.97;95634.94;5017465;28;20178;-61
2022/07/22 06:46:20;;;;;;;1999.90;999.90;;;;;;;35.53;57.81;95646.28;5018486;28;20187;-64
2022/07/22 06:48:45;;;;;;;1999.90;999.90;;;;;;;35.75;56.21;95643.50;5018446;28;20321;-63
2022/07/22 06:51:11;;;;;;;1999.90;999.90;;;;;;;35.62;56.30;95637.97;5018345;28;20190;-64
2022/07/22 06:53:36;;;;;;;1999.90;999.90;;;;;;;36.69;53.24;95640.44;5018372;28;20182;-61
2022/07/22 06:56:02;;;;;;;1999.90;999.90;;;;;;;36.26;54.09;95634.94;5018797;28;20213;-63
2022/07/22 06:58:27;;;;;;;1999.90;999.90;;;;;;;36.03;54.96;95637.75;5018290;28;20191;-59
2022/07/22 07:00:53;;;;;;;1999.90;999.90;;;;;;;36.79;51.89;95638.59;5018300;28;20273;-58
2022/07/22 07:03:18;;;;;;;1999.90;999.90;;;;;;;36.66;51.09;95632.31;5018513;28;20194;-58
2022/07/22 07:05:44;;;;;;;1999.90;999.90;;;;;;;37.18;50.14;95640.81;5034701;28;20244;-59
2022/07/22 07:08:09;;;;;;;1999.90;999.90;;;;;;;37.11;49.19;95641.56;5018086;28;20283;-58
2022/07/22 07:10:34;;;;;;;1999.90;999.90;;;;;;;37.68;46.96;95630.41;5018161;28;20203;-59
2022/07/22 07:13:00;;;;;;;1999.90;999.90;;;;;;;36.88;50.15;95635.13;5018533;28;20236;-64
2022/07/22 07:15:26;;;;;;;1999.90;999.90;;;;;;;37.00;50.12;95624.88;5018299;28;20206;-64
2022/07/22 07:17:52;;;;;;;1999.90;999.90;;;;;;;37.03;49.09;95631.50;5017885;28;20209;-65
2022/07/22 07:20:18;;;;;;;1999.90;999.90;;;;;;;37.11;50.05;95624.47;5018664;28;20213;-63
2022/07/22 07:22:43;;;;;;;1999.90;999.90;;;;;;;37.31;48.53;95620.63;5017956;28;20190;-64
2022/07/22 07:25:09;;;;;;;1999.90;999.90;;;;;;;37.98;46.71;95619.53;5018111;28;20207;-65
2022/07/22 07:27:35;;;;;;;1999.90;999.90;;;;;;;38.86;43.29;95621.56;5018410;28;20171;-64
2022/07/22 07:30:01;;;;;;;1999.90;999.90;;;;;;;37.50;45.04;95620.91;5018272;28;20187;-64
2022/07/22 07:32:26;;;;;;;1999.90;999.90;;;;;;;37.82;43.37;95620.97;5017577;28;20182;-61
2022/07/22 07:34:52;;;;;;;1999.90;999.90;;;;;;;38.43;41.27;95619.28;5017782;28;20207;-62
2022/07/22 07:37:17;;;;;;;1999.90;999.90;;;;;;;38.64;41.40;95624.66;5017777;28;20225;-61
2022/07/22 07:39:42;;;;;;;1999.90;999.90;;;;;;;38.83;40.14;95622.00;5017643;28;20229;-61
2022/07/22 07:42:08;;;;;;;1999.90;999.90;;;;;;;38.67;42.10;95614.91;5034484;28;20197;-65
2022/07/22 07:44:33;;;;;;;1999.90;999.90;;;;;;;37.28;42.11;95621.75;5018260;28;20186;-64
2022/07/22 07:46:59;;;;;;;1999.90;999.90;;;;;;;37.65;42.21;95620.88;5017929;28;20187;-65
2022/07/22 07:49:24;;;;;;;1999.90;999.90;;;;;;;37.18;44.44;95612.31;5017877;28;20190;-60
2022/07/22 07:51:50;;;;;;;1999.90;999.90;;;;;;;38.48;42.10;95615.41;5017291;28;20226;-61
2022/07/22 07:54:15;;;;;;;1999.90;999.90;;;;;;;38.91;40.73;95614.84;5017543;28;20198;-62
2022/07/22 07:56:41;;;;;;;1999.90;999.90;;;;;;;38.29;40.06;95609.47;5033457;28;20197;-61
2022/07/22 07:59:06;;;;;;;1999.90;999.90;;;;;;;38.46;40.45;95612.41;5017713;28;20190;-62
2022/07/22 08:01:32;;;;;;;1999.90;999.90;;;;;;;38.75;38.50;95604.91;5017225;28;20197;-64
2022/07/22 08:03:57;;;;;;;1999.90;999.90;;;;;;;36.75;43.49;95600.41;5033778;28;20202;-61
2022/07/22 08:06:23;;;;;;;1999.90;999.90;;;;;;;38.53;39.33;95605.88;5017268;28;20190;-60
2022/07/22 08:08:48;;;;;;;1999.90;999.90;;;;;;;39.28;36.91;95604.38;5017332;28;20202;-58
2022/07/22 08:11:13;;;;;;;1999.90;999.90;;;;;;;38.56;37.92;95601.84;5017776;28;20193;-63
2022/07/22 08:13:39;;;;;;;1999.90;999.90;;;;;;;38.64;36.56;95602.53;5017259;28;20182;-64
2022/07/22 08:16:04;;;;;;;1999.90;999.90;;;;;;;39.42;37.32;95601.94;5017006;28;20214;-61
2022/07/22 08:18:30;;;;;;;1999.90;999.90;;;;;;;38.51;36.30;95614.28;5017153;28;20186;-62
2022/07/22 08:20:56;;;;;;;1999.90;999.90;;;;;;;39.07;35.57;95599.06;5017219;28;20281;-61
2022/07/22 08:23:21;;;;;;;1999.90;999.90;;;;;;;37.97;37.27;95605.84;5017233;28;20186;-60
2022/07/22 08:25:46;;;;;;;1999.90;999.90;;;;;;;38.75;36.26;95604.91;5016732;28;20191;-61
2022/07/22 08:28:12;;;;;;;1999.90;999.90;;;;;;;39.04;36.21;95605.97;5017157;28;20190;-77
2022/07/22 08:30:39;;;;;;;1999.90;999.90;;;;;;;37.37;40.30;95601.22;5016984;28;20285;-60
2022/07/22 08:33:04;;;;;;;1999.90;999.90;;;;;;;36.64;42.03;95604.38;5033538;28;20194;-63
2022/07/22 08:35:30;;;;;;;1999.90;999.90;;;;;;;38.43;37.81;95596.41;5016761;28;20210;-60
2022/07/22 08:37:55;;;;;;;1999.90;999.90;;;;;;;38.99;36.35;95601.25;5034088;28;20182;-63
2022/07/22 08:40:21;;;;;;;1999.90;999.90;;;;;;;39.00;35.78;95605.63;5017119;28;20178;-59
2022/07/22 08:42:48;;;;;;;1999.90;999.90;;;;;;;38.37;38.35;95598.75;5016554;28;20231;-61
2022/07/22 08:45:14;;;;;;;1999.90;999.90;;;;;;;38.72;38.57;95591.81;5016848;28;20186;-70
2022/07/22 08:47:39;;;;;;;1999.90;999.90;;;;;;;39.26;36.33;95587.06;5016998;28;20213;-62
2022/07/22 08:50:05;;;;;;;1999.90;999.90;;;;;;;38.25;37.76;95592.00;5017209;28;20186;-60
2022/07/22 08:52:31;;;;;;;1999.90;999.90;;;;;;;38.27;37.21;95595.00;5016903;28;20186;-61
2022/07/22 08:54:56;;;;;;;1999.90;999.90;;;;;;;37.06;38.14;95588.38;5016708;28;20214;-63
2022/07/22 08:57:22;;;;;;;1999.90;999.90;;;;;;;37.66;38.55;95576.78;5033137;28;20190;-61
2022/07/22 08:59:53;;;;;;;1999.90;999.90;;;;;;;35.80;43.74;95567.91;5016404;28;20187;-60
2022/07/22 09:02:19;;;;;;;1999.90;999.90;;;;;;;37.74;38.08;95571.78;5016334;28;20229;-62
2022/07/22 09:05:03;;;;;;;1999.90;999.90;;;;;;;38.37;36.64;95558.75;5016288;28;20281;-60
2022/07/22 09:07:36;;;;;;;1999.90;999.90;;;;;;;39.03;33.54;95560.81;5044593;23;20226;-67
2022/07/22 09:10:04;;;;;;;1999.90;999.90;;;;;;;38.58;34.73;95567.75;5033413;28;20292;-64
2022/07/22 09:12:31;;;;;;;1999.90;999.90;;;;;;;38.80;34.31;95552.47;5033630;28;20240;-65
2022/07/22 09:14:58;;;;;;;1999.90;999.90;;;;;;;39.87;32.02;95547.00;5033704;28;20289;-64
2022/07/22 09:17:35;;;;;;;1999.90;999.90;;;;;;;39.76;32.22;95556.09;5033802;28;20339;-63
2022/07/22 09:20:05;;;;;;;1999.90;999.90;;;;;;;39.45;33.52;95549.28;5032676;28;20213;-64
2022/07/22 09:22:42;;;;;;;1999.90;999.90;;;;;;;38.53;34.24;95554.44;5033886;28;20178;-67
2022/07/22 09:25:31;;;;;;;1999.90;999.90;;;;;;;36.52;38.86;95547.06;5033117;28;20679;-61
2022/07/22 09:28:09;;;;;;;1999.90;999.90;;;;;;;38.55;35.07;95545.28;5033578;28;20265;-62
2022/07/22 09:30:37;;;;;;;1999.90;999.90;;;;;;;38.88;32.92;95543.81;5032519;28;20186;-64
2022/07/22 09:33:03;;;;;;;1999.90;999.90;;;;;;;38.26;34.81;95542.09;5032745;28;20189;-61
2022/07/22 09:35:29;;;;;;;1999.90;999.90;;;;;;;37.63;36.54;95548.63;5032304;28;20252;-59
2022/07/22 09:38:04;;;;;;;1999.90;999.90;;;;;;;36.63;38.08;95540.19;5032530;28;20202;-61
2022/07/22 09:40:32;;;;;;;1999.90;999.90;;;;;;;36.41;38.24;95543.84;5032816;28;20268;-64
2022/07/22 09:43:03;;;;;;;1999.90;999.90;;;;;;;35.01;40.15;95550.16;5032963;28;20271;-59
2022/07/22 09:45:30;;;;;;;1999.90;999.90;;;;;;;36.05;38.52;95537.59;5032091;28;20190;-62
2022/07/22 09:47:57;;;;;;;1999.90;999.90;;;;;;;36.84;37.03;95532.19;5032776;28;20189;-61
2022/07/22 09:50:34;;;;;;;1999.90;999.90;;;;;;;36.15;37.48;95527.91;5032201;28;20245;-59
2022/07/22 09:53:01;;;;;;;1999.90;999.90;;;;;;;37.57;35.59;95523.16;5032702;28;20178;-60
2022/07/22 09:55:27;;;;;;;1999.90;999.90;;;;;;;36.89;36.55;95525.56;5033320;28;20203;-61
2022/07/22 09:57:54;;;;;;;1999.90;999.90;;;;;;;38.37;33.37;95515.91;5032157;28;20184;-61
2022/07/22 10:00:22;;;;;;;1999.90;999.90;;;;;;;39.03;32.29;95524.41;5032482;28;20190;-68
2022/07/22 10:02:59;;;;;;;1999.90;999.90;;;;;;;38.63;31.86;95521.03;5032275;28;20187;-61
2022/07/22 10:05:32;;;;;;;1999.90;999.90;;;;;;;38.05;33.32;95516.00;5033359;28;20241;-60
2022/07/22 10:08:00;;;;;;;1999.90;999.90;;;;;;;37.18;34.57;95506.84;5032720;28;20195;-62
2022/07/22 10:10:28;;;;;;;1999.90;999.90;;;;;;;37.42;34.94;95508.22;5032072;28;20207;-60
2022/07/22 10:12:55;;;;;;;1999.90;999.90;;;;;;;37.38;34.39;95511.47;5032503;28;20262;-62
2022/07/22 10:15:22;;;;;;;1999.90;999.90;;;;;;;36.81;35.05;95504.84;5031990;28;20202;-66
2022/07/22 10:17:52;;;;;;;1999.90;999.90;;;;;;;37.25;34.78;95503.16;5031693;28;20190;-59
2022/07/22 10:20:20;;;;;;;1999.90;999.90;;;;;;;37.89;33.53;95499.56;5035347;28;20189;-65
2022/07/22 10:23:12;;;;;;;1999.90;999.90;;;;;;;38.01;33.77;95504.22;5035476;28;20201;-64
2022/07/22 10:25:52;;;;;;;1999.90;999.90;;;;;;;37.69;33.15;95494.97;5032623;28;20221;-64
2022/07/22 10:28:21;;;;;;;1999.90;999.90;;;;;;;36.69;35.48;95500.88;5036440;28;20194;-66
2022/07/22 10:30:47;;;;;;;1999.90;999.90;;;;;;;37.22;34.78;95490.09;5035244;28;20214;-66
2022/07/22 10:33:17;;;;;;;1999.90;999.90;;;;;;;38.34;32.46;95491.38;5035269;28;20226;-65
2022/07/22 10:35:42;;;;;;;1999.90;999.90;;;;;;;38.71;33.05;95495.22;5035495;28;20226;-66
2022/07/22 10:38:08;;;;;;;1999.90;999.90;;;;;;;38.96;31.59;95493.06;5035421;28;20186;-65
2022/07/22 10:40:54;;;;;;;1999.90;999.90;;;;;;;38.58;31.95;95476.31;5036152;28;20178;-73
2022/07/22 10:43:22;;;;;;;1999.90;999.90;;;;;;;36.61;36.67;95491.59;5035879;28;20225;-73
2022/07/22 10:45:50;;;;;;;1999.90;999.90;;;;;;;37.69;34.36;95484.28;5035073;28;20218;-69